Time;durP1;ratioP1;P1;durP2;ratioP2;P2;SDS_P1;SDS_P2;PMS_P1;PMS_P2;Temp;Humidity;BMP_temperature;BMP_pressure;BME280_temperature;BME280_humidity;BME280_pressure;Samples;Min_cycle;Max_cycle;Signal;HPM_P1;HPM_P2
2022/12/30 00:00:36;;;;;;;12.65;2.53;;;6.20;99.90;;;;;;5005819;28;20549;-72
2022/12/30 00:03:02;;;;;;;22.90;3.33;;;6.20;99.90;;;;;;5025587;28;20046;-72
2022/12/30 00:05:28;;;;;;;16.02;2.78;;;6.10;99.90;;;;;;5024836;28;20038;-72
2022/12/30 00:07:53;;;;;;;9.93;2.28;;;6.10;99.90;;;;;;5026736;28;20394;-72
2022/12/30 00:10:19;;;;;;;14.55;2.58;;;6.10;99.90;;;;;;5025155;28;20145;-73
2022/12/30 00:35:25;;;;;;;10.50;2.42;;;5.90;99.90;;;;;;5029120;28;20063;-72
2022/12/30 00:37:50;;;;;;;13.45;3.08;;;5.90;99.90;;;;;;5028331;28;20049;-72
2022/12/30 00:40:16;;;;;;;13.32;2.60;;;5.90;99.90;;;;;;5002061;28;20038;-72
2022/12/30 00:45:26;;;;;;;8.80;2.38;;;5.80;99.90;;;;;;5008698;28;20059;-72
2022/12/30 00:47:53;;;;;;;9.43;2.55;;;5.80;99.90;;;;;;5008288;28;20033;-72
2022/12/30 00:58:34;;;;;;;10.15;2.53;;;5.70;99.90;;;;;;5027419;28;19981;-72
2022/12/30 01:01:00;;;;;;;16.42;2.92;;;5.70;99.90;;;;;;5027432;28;20049;-72
2022/12/30 01:03:26;;;;;;;18.90;2.85;;;5.70;99.90;;;;;;5028047;28;20037;-72
2022/12/30 01:05:51;;;;;;;13.77;2.22;;;5.80;99.90;;;;;;5028109;28;20534;-72
2022/12/30 01:08:17;;;;;;;18.27;2.95;;;5.70;99.90;;;;;;5028057;28;20497;-72
2022/12/30 01:10:43;;;;;;;11.00;2.35;;;5.70;99.90;;;;;;5033213;28;20521;-72
2022/12/30 01:13:08;;;;;;;11.63;2.85;;;5.60;99.90;;;;;;5026237;28;20045;-72
2022/12/30 01:15:34;;;;;;;10.55;2.75;;;5.70;99.90;;;;;;5028102;28;20045;-72
2022/12/30 01:18:00;;;;;;;10.82;2.67;;;5.70;99.90;;;;;;5043002;28;20136;-72
2022/12/30 01:20:27;;;;;;;18.85;2.90;;;5.80;99.90;;;;;;5028430;28;20048;-72
2022/12/30 01:22:55;;;;;;;12.85;2.55;;;5.60;99.90;;;;;;5027901;28;20041;-72
2022/12/30 01:25:21;;;;;;;11.80;4.05;;;5.60;99.90;;;;;;5008722;28;20041;-72
2022/12/30 01:27:51;;;;;;;19.60;2.72;;;5.50;99.90;;;;;;5007994;28;20495;-72
2022/12/30 01:30:16;;;;;;;9.07;2.05;;;5.40;99.90;;;;;;5007863;28;20292;-72
2022/12/30 01:32:42;;;;;;;9.02;2.10;;;5.40;99.90;;;;;;5009366;28;20041;-72
2022/12/30 01:35:10;;;;;;;15.75;3.03;;;5.40;99.90;;;;;;5025472;28;20058;-72
2022/12/30 01:37:36;;;;;;;13.75;2.05;;;5.30;99.90;;;;;;5027631;28;20461;-72
2022/12/30 01:40:01;;;;;;;10.77;2.25;;;5.30;99.90;;;;;;5010677;28;20050;-72
2022/12/30 01:42:29;;;;;;;10.73;2.50;;;5.30;99.90;;;;;;5007525;28;20041;-72
2022/12/30 01:45:02;;;;;;;13.73;2.95;;;5.30;99.90;;;;;;4990945;28;20042;-72
2022/12/30 01:47:47;;;;;;;10.63;2.30;;;5.30;99.90;;;;;;5010307;28;20037;-72
2022/12/30 01:50:12;;;;;;;11.82;2.60;;;5.30;99.90;;;;;;5027319;28;20038;-72
2022/12/30 01:52:43;;;;;;;9.77;2.10;;;5.30;99.90;;;;;;5027611;28;20048;-72
2022/12/30 01:55:18;;;;;;;11.98;2.22;;;5.30;99.90;;;;;;5009818;28;20125;-72
2022/12/30 01:57:48;;;;;;;17.25;2.67;;;5.30;99.90;;;;;;5007612;28;20124;-72
2022/12/30 02:00:14;;;;;;;12.50;3.38;;;5.30;99.90;;;;;;4978410;28;20065;-72
2022/12/30 02:02:40;;;;;;;11.07;2.88;;;5.30;99.90;;;;;;4968854;28;20055;-72
2022/12/30 02:05:07;;;;;;;;;;;5.30;99.90;;;;;;4985858;28;20077;-72
2022/12/30 02:07:47;;;;;;;15.98;3.05;;;5.30;99.90;;;;;;4982795;28;19972;-72
2022/12/30 02:10:14;;;;;;;23.77;2.78;;;5.40;99.90;;;;;;4977695;28;20730;-72
2022/12/30 02:12:39;;;;;;;15.45;2.70;;;5.40;99.90;;;;;;4988081;28;20046;-72
2022/12/30 02:15:06;;;;;;;20.52;3.47;;;5.40;99.90;;;;;;4988186;28;20049;-72
2022/12/30 02:17:50;;;;;;;9.07;2.78;;;5.40;99.90;;;;;;4987446;28;20039;-72
2022/12/30 02:20:30;;;;;;;8.85;2.30;;;5.30;99.90;;;;;;4987473;28;20407;-72
2022/12/30 02:23:47;;;;;;;14.73;2.58;;;5.30;99.90;;;;;;4987814;28;20065;-72
2022/12/30 02:26:32;;;;;;;12.32;3.13;;;5.30;99.90;;;;;;4970488;28;20093;-72
2022/12/30 02:29:18;;;;;;;12.23;2.53;;;5.30;99.90;;;;;;4968504;28;20130;-72
2022/12/30 02:32:15;;;;;;;13.73;3.10;;;5.20;99.90;;;;;;4967864;28;20051;-72
2022/12/30 02:34:43;;;;;;;14.90;2.65;;;5.20;99.90;;;;;;4967296;28;20395;-72
2022/12/30 02:37:35;;;;;;;17.00;2.83;;;5.20;99.90;;;;;;4969956;28;20560;-72
2022/12/30 02:46:13;;;;;;;21.45;3.78;;;5.00;99.90;;;;;;4968080;28;20047;-72
2022/12/30 02:48:44;;;;;;;20.17;4.30;;;5.00;99.90;;;;;;4970378;28;20357;-72
2022/12/30 02:53:55;;;;;;;12.27;2.70;;;5.00;99.90;;;;;;4988892;28;20046;-72
2022/12/30 02:56:20;;;;;;;21.33;4.28;;;4.90;99.90;;;;;;4990625;28;20042;-72
2022/12/30 03:03:56;;;;;;;13.77;3.08;;;4.80;99.90;;;;;;4990903;28;20384;-72
2022/12/30 03:05:26;;;;;;;17.27;4.15;;;4.80;99.90;;;;;;4979529;28;20047;-72
2022/12/30 03:07:55;;;;;;;13.95;3.05;;;4.80;99.90;;;;;;4892202;29;20044;-72
2022/12/30 03:11:17;;;;;;;14.68;2.88;;;4.90;99.90;;;;;;4962559;28;20534;-72
2022/12/30 03:14:12;;;;;;;13.20;3.00;;;4.90;99.90;;;;;;4907489;29;20131;-72
2022/12/30 03:17:15;;;;;;;10.43;2.95;;;4.80;99.90;;;;;;4969782;28;20092;-72
2022/12/30 03:19:44;;;;;;;9.57;3.05;;;4.80;99.90;;;;;;4980091;28;20038;-72
2022/12/30 03:27:03;;;;;;;10.98;2.33;;;4.90;99.90;;;;;;4980544;28;20057;-72
2022/12/30 03:27:46;;;;;;;19.05;2.55;;;4.80;99.90;;;;;;4990313;28;20162;-72
2022/12/30 03:30:12;;;;;;;12.82;2.13;;;4.90;99.90;;;;;;4990544;28;20089;-72
2022/12/30 03:32:38;;;;;;;;;;;4.80;99.90;;;;;;4985791;28;20046;-72
2022/12/30 03:35:05;;;;;;;10.98;2.45;;;4.80;99.90;;;;;;4971116;28;19924;-72
2022/12/30 03:37:36;;;;;;;8.88;2.13;;;4.80;99.90;;;;;;4970309;28;20392;-72
2022/12/30 03:40:06;;;;;;;15.82;2.50;;;4.80;99.90;;;;;;4987629;28;20042;-72
2022/12/30 03:42:32;;;;;;;9.48;2.03;;;4.80;99.90;;;;;;4989627;28;20388;-72
2022/12/30 03:44:58;;;;;;;12.25;2.50;;;4.80;99.90;;;;;;4990483;28;20046;-72
2022/12/30 03:47:24;;;;;;;14.52;2.78;;;4.80;99.90;;;;;;4988970;28;20738;-72
2022/12/30 03:49:50;;;;;;;13.50;2.53;;;4.70;99.90;;;;;;4990418;28;20116;-72
2022/12/30 03:52:20;;;;;;;7.88;2.63;;;4.70;99.90;;;;;;4989425;28;20050;-72
2022/12/30 03:54:47;;;;;;;11.60;2.17;;;4.90;99.90;;;;;;4990470;28;20085;-72
2022/12/30 03:57:13;;;;;;;5.28;2.22;;;4.70;99.90;;;;;;4981266;28;20042;-72
2022/12/30 03:59:40;;;;;;;8.57;2.28;;;4.80;99.90;;;;;;4979198;28;20057;-72
2022/12/30 04:02:05;;;;;;;10.02;2.40;;;4.70;99.90;;;;;;5008923;28;20479;-72
2022/12/30 04:04:31;;;;;;;8.20;1.90;;;4.70;99.90;;;;;;5008988;28;20038;-72
2022/12/30 04:06:57;;;;;;;8.75;2.17;;;4.60;99.90;;;;;;5008970;28;20049;-72
2022/12/30 04:09:23;;;;;;;12.35;2.22;;;4.70;99.90;;;;;;5012007;28;20077;-72
2022/12/30 04:11:48;;;;;;;13.55;2.08;;;4.60;99.90;;;;;;5028883;28;20045;-72
2022/12/30 04:14:14;;;;;;;7.38;2.30;;;4.60;99.90;;;;;;5029676;28;20462;-72
2022/12/30 04:16:40;;;;;;;10.27;2.50;;;4.60;99.90;;;;;;5027992;28;20466;-72
2022/12/30 04:19:06;;;;;;;7.15;1.85;;;4.90;99.90;;;;;;5029202;28;20049;-72
2022/12/30 04:21:31;;;;;;;12.35;3.33;;;4.60;99.90;;;;;;5028693;28;20046;-72
2022/12/30 04:23:57;;;;;;;7.00;1.95;;;4.80;99.90;;;;;;5022508;28;20069;-72
2022/12/30 04:26:23;;;;;;;11.13;2.15;;;4.60;99.90;;;;;;5026990;28;20053;-72
2022/12/30 04:28:49;;;;;;;13.50;2.58;;;4.60;99.90;;;;;;5019669;28;20046;-72
2022/12/30 04:31:14;;;;;;;8.35;1.92;;;4.60;99.90;;;;;;5008457;28;20102;-72
2022/12/30 04:33:40;;;;;;;18.55;2.10;;;4.60;99.90;;;;;;5014246;28;20124;-72
2022/12/30 04:36:06;;;;;;;12.98;2.20;;;4.60;99.90;;;;;;5028618;28;20085;-72
2022/12/30 04:38:32;;;;;;;;;;;4.60;99.90;;;;;;5028888;28;20059;-72
2022/12/30 04:40:58;;;;;;;11.70;2.05;;;4.60;99.90;;;;;;5029007;28;20417;-72
2022/12/30 04:43:23;;;;;;;13.57;2.10;;;4.60;99.90;;;;;;5009132;28;20049;-72
2022/12/30 04:45:49;;;;;;;8.63;2.35;;;4.60;99.90;;;;;;5008388;28;20106;-72
2022/12/30 04:48:15;;;;;;;4.20;1.85;;;4.70;99.90;;;;;;5008836;28;20049;-72
2022/12/30 04:50:45;;;;;;;9.88;2.05;;;4.60;99.90;;;;;;4993134;28;20768;-72
2022/12/30 04:53:11;;;;;;;15.05;2.67;;;4.70;99.90;;;;;;5011225;28;20091;-72
2022/12/30 04:55:38;;;;;;;8.02;1.80;;;4.70;99.90;;;;;;5008413;28;20098;-72
2022/12/30 04:58:04;;;;;;;8.55;1.90;;;4.70;99.90;;;;;;4999833;28;20048;-72
2022/12/30 05:00:30;;;;;;;13.25;2.22;;;4.70;99.90;;;;;;5027885;28;20113;-72
2022/12/30 05:02:56;;;;;;;;;;;4.70;99.90;;;;;;5028771;28;20501;-72
2022/12/30 05:05:22;;;;;;;8.25;2.55;;;4.70;99.90;;;;;;5019606;28;19921;-72
2022/12/30 05:07:47;;;;;;;17.27;2.72;;;4.70;99.90;;;;;;5008461;28;20420;-72
2022/12/30 05:10:13;;;;;;;9.77;2.15;;;4.70;99.90;;;;;;5016839;28;20055;-72
2022/12/30 05:12:39;;;;;;;11.52;2.30;;;4.80;99.90;;;;;;5011749;28;20137;-72
2022/12/30 05:15:05;;;;;;;15.63;2.00;;;4.90;99.90;;;;;;5027983;28;20040;-72
2022/12/30 05:17:30;;;;;;;11.60;2.15;;;4.70;99.90;;;;;;5042497;28;20494;-72
2022/12/30 05:19:56;;;;;;;7.18;2.17;;;4.80;99.90;;;;;;5028731;28;20049;-72
2022/12/30 05:22:22;;;;;;;15.18;2.65;;;4.80;99.90;;;;;;5027815;28;20497;-72
2022/12/30 05:27:32;;;;;;;7.53;2.55;;;4.60;99.90;;;;;;5007637;28;20045;-72
2022/12/30 05:29:57;;;;;;;11.85;2.30;;;4.90;99.90;;;;;;5007958;28;20042;-72
2022/12/30 05:32:23;;;;;;;17.90;3.03;;;4.70;99.90;;;;;;5007131;28;20049;-72
2022/12/30 05:34:49;;;;;;;21.00;3.20;;;4.50;99.90;;;;;;5008497;28;20410;-72
2022/12/30 05:37:15;;;;;;;10.15;2.60;;;4.50;99.90;;;;;;5017496;28;20458;-71
2022/12/30 05:39:40;;;;;;;8.05;2.20;;;4.80;99.90;;;;;;5013685;28;20134;-72
2022/12/30 05:42:06;;;;;;;17.80;2.67;;;4.50;99.90;;;;;;5007814;28;20054;-71
2022/12/30 05:44:32;;;;;;;15.32;2.78;;;4.50;99.90;;;;;;5025538;28;20462;-72
2022/12/30 05:46:58;;;;;;;15.75;2.50;;;4.60;99.90;;;;;;5012078;28;20037;-72
2022/12/30 05:49:23;;;;;;;;;;;4.50;99.90;;;;;;5008451;28;20433;-72
2022/12/30 05:51:49;;;;;;;21.95;2.90;;;4.50;99.90;;;;;;5007283;28;19921;-72
2022/12/30 05:54:15;;;;;;;7.78;1.90;;;4.50;99.90;;;;;;5007343;28;20041;-72
2022/12/30 05:56:41;;;;;;;14.70;2.40;;;4.50;99.90;;;;;;5008147;28;20094;-72
2022/12/30 05:59:09;;;;;;;9.88;3.55;;;4.40;99.90;;;;;;5027145;28;20037;-72
2022/12/30 06:01:35;;;;;;;8.77;2.28;;;4.40;99.90;;;;;;5025123;28;20516;-72
2022/12/30 06:04:01;;;;;;;10.80;2.35;;;4.60;99.90;;;;;;5009616;28;20054;-71
2022/12/30 06:06:27;;;;;;;11.85;2.75;;;4.40;99.90;;;;;;5023303;28;20398;-72
2022/12/30 06:08:52;;;;;;;9.30;2.55;;;4.30;99.90;;;;;;5027184;28;20463;-72
2022/12/30 06:11:18;;;;;;;19.50;2.42;;;4.40;99.90;;;;;;5025150;28;20056;-72
2022/12/30 06:13:46;;;;;;;20.27;2.40;;;4.40;99.90;;;;;;5026568;28;20317;-72
2022/12/30 06:16:12;;;;;;;9.02;2.40;;;4.30;99.90;;;;;;5026568;28;20553;-72
2022/12/30 06:18:38;;;;;;;13.95;2.65;;;4.40;99.90;;;;;;5009631;28;20056;-72
2022/12/30 06:21:04;;;;;;;14.23;3.17;;;4.40;99.90;;;;;;4990370;28;20052;-72
2022/12/30 06:23:30;;;;;;;7.22;1.95;;;4.50;99.90;;;;;;5023015;28;20073;-72
2022/12/30 06:25:58;;;;;;;15.68;2.63;;;4.30;99.90;;;;;;5023631;28;20076;-72
2022/12/30 06:28:25;;;;;;;11.02;2.80;;;4.50;99.90;;;;;;5025705;28;20041;-72
2022/12/30 06:30:51;;;;;;;15.65;3.38;;;4.40;99.90;;;;;;5026424;28;20375;-72
2022/12/30 06:33:17;;;;;;;;;;;4.40;99.90;;;;;;5027396;28;20041;-72
2022/12/30 06:35:43;;;;;;;7.47;1.98;;;4.40;99.90;;;;;;5026772;28;19924;-72
2022/12/30 06:38:12;;;;;;;;;;;4.40;99.90;;;;;;5025904;28;20041;-72
2022/12/30 06:40:37;;;;;;;19.42;2.75;;;4.50;99.90;;;;;;4989747;28;19917;-72
2022/12/30 06:43:06;;;;;;;16.13;2.85;;;4.50;99.90;;;;;;5007117;28;20042;-72
2022/12/30 06:45:32;;;;;;;11.50;2.72;;;4.70;99.90;;;;;;5007536;28;20046;-72
2022/12/30 06:47:57;;;;;;;14.68;2.58;;;4.50;99.90;;;;;;5006596;28;20053;-72
2022/12/30 06:50:23;;;;;;;9.60;2.72;;;4.50;99.90;;;;;;5013412;28;20509;-72
2022/12/30 06:52:49;;;;;;;12.05;2.60;;;4.50;99.90;;;;;;5026074;28;20075;-72
2022/12/30 06:55:14;;;;;;;7.45;2.28;;;4.70;99.90;;;;;;5015727;28;20124;-72
2022/12/30 06:57:40;;;;;;;6.85;2.28;;;4.50;99.90;;;;;;5024031;28;20037;-72
2022/12/30 07:00:08;;;;;;;14.27;2.45;;;4.60;99.90;;;;;;5027398;28;20044;-72
2022/12/30 07:02:34;;;;;;;17.63;2.13;;;4.50;99.90;;;;;;5007369;28;20486;-72
2022/12/30 07:05:00;;;;;;;13.20;2.78;;;4.50;99.90;;;;;;5007485;28;20093;-72
2022/12/30 07:07:26;;;;;;;11.55;2.15;;;4.60;99.90;;;;;;4989255;28;20069;-72
2022/12/30 07:09:52;;;;;;;5.72;2.90;;;4.70;99.90;;;;;;4989345;28;20530;-72
2022/12/30 07:12:18;;;;;;;16.58;2.85;;;4.60;99.90;;;;;;5006534;28;20050;-72
2022/12/30 07:14:44;;;;;;;8.68;2.03;;;4.60;99.90;;;;;;4993774;28;20629;-72
2022/12/30 07:17:09;;;;;;;6.60;2.30;;;4.60;99.90;;;;;;5006116;28;20463;-72
2022/12/30 07:19:35;;;;;;;12.15;2.60;;;4.60;99.90;;;;;;5006929;28;20099;-72
2022/12/30 07:22:01;;;;;;;15.18;2.85;;;4.60;99.90;;;;;;5013786;28;20073;-72
2022/12/30 07:24:26;;;;;;;9.82;3.35;;;4.60;99.90;;;;;;5026501;28;20505;-72
2022/12/30 07:26:52;;;;;;;11.07;2.45;;;4.90;99.90;;;;;;5019674;28;20164;-72
2022/12/30 07:29:18;;;;;;;7.20;1.92;;;4.60;99.90;;;;;;5007021;28;20183;-72
2022/12/30 07:31:44;;;;;;;14.98;2.03;;;4.60;99.90;;;;;;5020351;28;20061;-72
2022/12/30 07:34:10;;;;;;;7.50;2.20;;;4.70;99.90;;;;;;5014921;28;20050;-72
2022/12/30 07:36:36;;;;;;;11.27;2.83;;;4.60;99.90;;;;;;5006425;28;20133;-72
2022/12/30 07:39:02;;;;;;;10.77;2.10;;;4.80;99.90;;;;;;5007467;28;20081;-72
2022/12/30 07:41:27;;;;;;;8.27;1.73;;;4.60;99.90;;;;;;5029854;28;20045;-72
2022/12/30 07:43:53;;;;;;;14.00;1.92;;;4.70;99.90;;;;;;5028691;28;20496;-73
2022/12/30 07:46:19;;;;;;;15.52;3.28;;;4.60;99.90;;;;;;5026011;28;20109;-72
2022/12/30 07:48:45;;;;;;;;;;;4.60;99.90;;;;;;5009833;28;20041;-72
2022/12/30 07:51:13;;;;;;;12.23;2.72;;;4.60;99.90;;;;;;5019019;28;19917;-72
2022/12/30 07:53:40;;;;;;;15.68;2.53;;;5.00;99.90;;;;;;5022199;28;20182;-72
2022/12/30 07:56:08;;;;;;;13.95;2.78;;;4.60;99.90;;;;;;5014012;28;20129;-73
2022/12/30 07:58:33;;;;;;;15.05;3.10;;;4.60;99.90;;;;;;5009661;28;20171;-72
2022/12/30 08:01:10;;;;;;;10.95;2.65;;;4.60;99.90;;;;;;5008626;28;20140;-72
2022/12/30 08:03:37;;;;;;;14.35;2.72;;;4.70;99.90;;;;;;5009730;28;20387;-71
2022/12/30 08:06:03;;;;;;;;;;;4.70;99.90;;;;;;5019880;28;20041;-72
2022/12/30 08:08:29;;;;;;;16.38;2.58;;;4.70;99.90;;;;;;5027643;28;20003;-72
2022/12/30 08:10:56;;;;;;;16.58;2.83;;;4.80;99.90;;;;;;5044653;28;20174;-72
2022/12/30 08:13:22;;;;;;;6.93;2.35;;;4.80;99.90;;;;;;5028990;28;20056;-72
2022/12/30 08:15:48;;;;;;;13.57;1.92;;;4.80;99.90;;;;;;5027834;28;20041;-71
2022/12/30 08:18:16;;;;;;;12.95;2.42;;;4.80;99.90;;;;;;5109137;27;20064;-71
2022/12/30 08:20:42;;;;;;;13.75;3.53;;;4.90;99.90;;;;;;5028942;28;20053;-72
2022/12/30 08:23:08;;;;;;;13.85;2.30;;;4.90;99.90;;;;;;5023028;28;20046;-72
2022/12/30 08:25:34;;;;;;;6.97;1.88;;;4.90;99.90;;;;;;5019129;28;20041;-72
2022/12/30 08:28:00;;;;;;;11.43;2.70;;;4.90;99.90;;;;;;5019902;28;20387;-72
2022/12/30 08:30:26;;;;;;;12.27;2.50;;;5.00;99.90;;;;;;5009061;28;20522;-72
2022/12/30 08:32:52;;;;;;;7.43;1.88;;;5.00;99.90;;;;;;5008077;28;20532;-72
2022/12/30 08:35:18;;;;;;;8.50;2.08;;;5.00;99.90;;;;;;5008487;28;20054;-72
2022/12/30 08:37:43;;;;;;;8.32;2.00;;;5.00;99.90;;;;;;5008691;28;20042;-72
2022/12/30 08:40:10;;;;;;;6.82;2.03;;;5.10;99.90;;;;;;5065383;27;20042;-72
2022/12/30 08:42:36;;;;;;;12.73;1.98;;;5.10;99.90;;;;;;5133002;27;20039;-72
2022/12/30 08:45:03;;;;;;;;;;;5.20;99.90;;;;;;5132866;27;20047;-72
2022/12/30 08:47:31;;;;;;;18.50;2.45;;;5.20;99.90;;;;;;5110488;27;19921;-72
2022/12/30 08:49:57;;;;;;;14.63;2.33;;;5.30;99.90;;;;;;5033911;28;20466;-72
2022/12/30 08:52:24;;;;;;;8.27;1.83;;;5.30;99.90;;;;;;5009733;28;20133;-72
2022/12/30 08:54:50;;;;;;;9.73;1.75;;;5.30;99.90;;;;;;5028131;28;20129;-72
2022/12/30 08:57:15;;;;;;;10.63;1.88;;;5.40;99.90;;;;;;5028148;28;20116;-72
2022/12/30 08:59:41;;;;;;;9.23;2.22;;;5.50;99.90;;;;;;5028813;28;20095;-72
2022/12/30 09:02:13;;;;;;;9.48;1.95;;;5.40;99.90;;;;;;5026818;28;20117;-72
2022/12/30 09:04:39;;;;;;;16.75;2.30;;;5.40;99.90;;;;;;5028707;28;20049;-72
2022/12/30 09:07:05;;;;;;;8.18;2.38;;;5.50;99.90;;;;;;5027061;28;20105;-73
2022/12/30 09:09:30;;;;;;;;;;;5.50;99.90;;;;;;5015352;28;20103;-72
2022/12/30 09:11:56;;;;;;;7.20;1.75;;;5.60;99.90;;;;;;5007834;28;20308;-71
2022/12/30 09:14:23;;;;;;;4.15;1.60;;;5.60;99.90;;;;;;5009186;28;20049;-72
2022/12/30 09:16:49;;;;;;;14.52;2.38;;;5.70;99.90;;;;;;5007669;28;20076;-73
2022/12/30 09:19:15;;;;;;;;;;;5.80;99.90;;;;;;5018099;28;20605;-72
2022/12/30 09:21:41;;;;;;;15.18;2.00;;;5.70;99.90;;;;;;5016434;28;19931;-72
2022/12/30 09:24:10;;;;;;;6.22;2.40;;;5.80;99.90;;;;;;4995071;28;20037;-72
2022/12/30 09:26:36;;;;;;;10.63;2.85;;;5.80;99.90;;;;;;5011479;28;20045;-71
2022/12/30 09:29:02;;;;;;;4.10;1.35;;;5.90;99.90;;;;;;5007446;28;20037;-72
2022/12/30 09:31:28;;;;;;;10.30;1.95;;;5.90;99.90;;;;;;5013628;28;20034;-72
2022/12/30 09:33:54;;;;;;;;;;;5.90;99.90;;;;;;5007440;28;20486;-72
2022/12/30 09:36:21;;;;;;;6.03;1.80;;;6.00;99.90;;;;;;5006596;28;19971;-73
2022/12/30 09:38:48;;;;;;;9.43;1.95;;;6.10;99.90;;;;;;5005734;28;20030;-72
2022/12/30 09:44:36;;;;;;;5.50;1.98;;;6.00;99.90;;;;;;5015292;28;20048;-72
2022/12/30 09:47:08;;;;;;;8.90;1.85;;;6.30;99.90;;;;;;5002554;28;20048;-72
2022/12/30 09:49:39;;;;;;;8.05;1.85;;;6.20;99.90;;;;;;5019721;28;20045;-72
2022/12/30 09:52:13;;;;;;;12.05;2.08;;;6.20;99.90;;;;;;5017369;28;20041;-72
2022/12/30 09:54:43;;;;;;;6.32;1.55;;;6.30;99.90;;;;;;5021465;28;20053;-72
2022/12/30 10:00:14;;;;;;;;;;;6.40;99.90;;;;;;5014478;28;20119;-73
2022/12/30 10:02:58;;;;;;;13.15;2.40;;;6.40;99.90;;;;;;5005009;28;19929;-72
2022/12/30 10:05:54;;;;;;;11.23;1.70;;;6.50;99.90;;;;;;5014187;28;20037;-71
2022/12/30 10:08:30;;;;;;;10.77;2.88;;;6.50;99.90;;;;;;5026849;28;20479;-71
2022/12/30 10:11:30;;;;;;;12.30;1.85;;;6.50;99.90;;;;;;5027072;28;20041;-73
2022/12/30 10:14:07;;;;;;;7.30;1.65;;;6.60;99.90;;;;;;5027867;28;20057;-73
2022/12/30 10:16:58;;;;;;;9.02;2.08;;;6.60;99.90;;;;;;5026295;28;20113;-73
2022/12/30 10:19:35;;;;;;;5.97;1.80;;;6.70;99.90;;;;;;5025009;28;20037;-72
2022/12/30 10:22:09;;;;;;;3.75;1.70;;;6.80;99.90;;;;;;5015783;28;20181;-72
2022/12/30 10:24:58;;;;;;;11.63;2.35;;;6.80;99.90;;;;;;5020753;28;20128;-73
2022/12/30 10:27:46;;;;;;;6.95;2.15;;;6.80;99.90;;;;;;5020715;28;20093;-71
2022/12/30 10:30:18;;;;;;;4.50;1.70;;;6.90;99.90;;;;;;5025780;28;20047;-75
2022/12/30 10:32:50;;;;;;;8.18;2.05;;;6.90;99.90;;;;;;4995883;28;20099;-72
2022/12/30 10:35:25;;;;;;;8.95;1.80;;;6.90;99.90;;;;;;5026547;28;20067;-72
2022/12/30 10:38:13;;;;;;;6.60;1.90;;;7.00;99.90;;;;;;5009354;28;20057;-72
2022/12/30 10:41:03;;;;;;;8.80;2.17;;;7.00;99.90;;;;;;5020957;28;20048;-72
2022/12/30 10:43:42;;;;;;;5.22;1.77;;;7.10;99.90;;;;;;5012833;28;20134;-73
2022/12/30 10:46:08;;;;;;;7.70;1.90;;;7.10;99.90;;;;;;5006710;28;20041;-73
2022/12/30 10:48:56;;;;;;;14.07;2.47;;;7.20;99.90;;;;;;5006669;28;20042;-73
2022/12/30 10:51:24;;;;;;;4.95;1.50;;;7.20;99.90;;;;;;5003233;28;20050;-73
2022/12/30 10:53:52;;;;;;;7.65;1.63;;;7.30;99.90;;;;;;4987023;28;20057;-73
2022/12/30 10:56:26;;;;;;;5.72;1.88;;;7.30;99.90;;;;;;5003820;28;20045;-73
2022/12/30 10:58:56;;;;;;;8.73;2.20;;;7.30;99.90;;;;;;4990502;28;20759;-73
2022/12/30 11:01:30;;;;;;;6.13;1.45;;;7.40;99.90;;;;;;5017706;28;20096;-72
2022/12/30 11:03:58;;;;;;;4.78;1.60;;;7.40;99.90;;;;;;5007621;28;20073;-72
2022/12/30 11:06:30;;;;;;;4.55;1.73;;;7.40;99.90;;;;;;5016700;28;20038;-72
2022/12/30 11:09:11;;;;;;;7.38;1.95;;;7.40;99.90;;;;;;5008444;28;20052;-72
2022/12/30 11:14:44;;;;;;;2.88;1.42;;;7.50;99.90;;;;;;5020283;28;20178;-72
2022/12/30 11:17:16;;;;;;;6.32;1.60;;;7.50;99.90;;;;;;5028291;28;20041;-72
2022/12/30 11:19:43;;;;;;;4.32;1.40;;;7.60;99.90;;;;;;5030030;28;20041;-72
2022/12/30 11:22:10;;;;;;;3.15;1.10;;;7.60;99.90;;;;;;5028914;28;20119;-72
2022/12/30 11:24:44;;;;;;;5.82;2.33;;;7.70;99.90;;;;;;5020709;28;20046;-72
2022/12/30 11:27:10;;;;;;;7.80;1.40;;;7.80;99.90;;;;;;5020869;28;20056;-72
2022/12/30 11:29:36;;;;;;;3.38;1.35;;;7.80;99.90;;;;;;5013451;28;20125;-72
2022/12/30 11:32:10;;;;;;;3.30;1.80;;;7.80;99.90;;;;;;5043517;28;20506;-73
2022/12/30 11:34:40;;;;;;;3.15;1.15;;;7.90;99.90;;;;;;5029961;28;20041;-73
2022/12/30 11:37:30;;;;;;;7.75;1.23;;;7.90;99.90;;;;;;5029056;28;20049;-73
2022/12/30 11:39:58;;;;;;;5.88;1.45;;;7.90;99.90;;;;;;4993040;28;20539;-73
2022/12/30 11:42:30;;;;;;;4.63;1.20;;;7.90;99.90;;;;;;5026575;28;20140;-72
2022/12/30 11:45:22;;;;;;;5.60;1.40;;;8.00;99.90;;;;;;5027854;28;20045;-72
2022/12/30 11:47:48;;;;;;;4.80;1.40;;;8.00;99.90;;;;;;5011669;28;20542;-71
2022/12/30 11:50:17;;;;;;;;;;;8.00;99.90;;;;;;5027727;28;20084;-71
2022/12/30 11:52:55;;;;;;;4.70;1.50;;;8.00;99.90;;;;;;5029276;28;19985;-71
2022/12/30 11:55:25;;;;;;;3.55;1.25;;;8.00;99.90;;;;;;5028345;28;20465;-71
2022/12/30 11:57:55;;;;;;;2.33;1.02;;;8.10;99.90;;;;;;5029202;28;20057;-71
2022/12/30 12:00:21;;;;;;;5.97;1.50;;;8.00;99.90;;;;;;5028995;28;20050;-71
2022/12/30 12:02:58;;;;;;;7.68;1.52;;;8.10;99.90;;;;;;5068965;27;20055;-71
2022/12/30 12:05:28;;;;;;;5.45;1.35;;;8.10;99.90;;;;;;5017323;28;20068;-71
2022/12/30 12:08:26;;;;;;;3.85;1.02;;;8.10;99.90;;;;;;5024552;28;20494;-72
2022/12/30 12:10:58;;;;;;;3.78;1.45;;;8.20;99.90;;;;;;5043569;28;20049;-71
2022/12/30 12:13:50;;;;;;;2.15;0.98;;;8.20;99.90;;;;;;5028423;28;20052;-71
2022/12/30 12:16:33;;;;;;;3.90;1.73;;;8.20;99.90;;;;;;5027507;28;20124;-71
2022/12/30 12:19:07;;;;;;;4.03;1.33;;;8.20;99.90;;;;;;5029206;28;20049;-72
2022/12/30 12:21:38;;;;;;;2.47;1.20;;;8.30;99.90;;;;;;5028420;28;20041;-72
2022/12/30 12:24:22;;;;;;;2.88;1.27;;;8.30;99.90;;;;;;5022364;28;20474;-71
2022/12/30 12:27:09;;;;;;;4.30;1.20;;;8.30;99.90;;;;;;5015790;28;20045;-71
2022/12/30 12:29:35;;;;;;;4.60;2.15;;;8.30;99.90;;;;;;5046879;27;20054;-71
2022/12/30 12:32:31;;;;;;;5.68;1.30;;;8.30;99.90;;;;;;5030602;28;20057;-72
2022/12/30 12:35:24;;;;;;;10.10;1.20;;;8.30;99.90;;;;;;5016210;28;20041;-71
2022/12/30 12:38:08;;;;;;;6.28;1.45;;;8.30;99.90;;;;;;5043628;28;20447;-71
2022/12/30 12:41:00;;;;;;;4.68;1.10;;;8.30;99.90;;;;;;5021888;28;20444;-71
2022/12/30 12:43:50;;;;;;;5.22;1.30;;;8.40;99.90;;;;;;5020412;28;20038;-71
2022/12/30 12:46:22;;;;;;;1.95;0.93;;;8.40;99.90;;;;;;5016580;28;20606;-71
2022/12/30 12:48:50;;;;;;;3.42;0.98;;;8.40;99.90;;;;;;5026160;28;20095;-71
2022/12/30 12:51:28;;;;;;;2.47;1.13;;;8.40;99.90;;;;;;5022598;28;20041;-71
2022/12/30 12:54:13;;;;;;;2.90;1.00;;;8.50;99.90;;;;;;5024152;28;20157;-71
2022/12/30 12:56:53;;;;;;;4.63;1.60;;;8.50;99.90;;;;;;5015707;28;20045;-71
2022/12/30 12:59:33;;;;;;;3.42;0.90;;;8.50;99.90;;;;;;5010419;28;20798;-71
2022/12/30 13:02:35;;;;;;;2.42;1.00;;;8.50;99.90;;;;;;5026237;28;20068;-72
2022/12/30 13:05:33;;;;;;;4.55;1.20;;;8.50;99.90;;;;;;5017273;28;20084;-72
2022/12/30 13:08:16;;;;;;;4.05;1.20;;;8.60;99.90;;;;;;5028059;28;20041;-72
2022/12/30 13:10:53;;;;;;;4.32;1.08;;;8.60;99.90;;;;;;5023979;28;20480;-72
2022/12/30 13:13:32;;;;;;;2.33;0.82;;;8.70;99.90;;;;;;5018033;28;20046;-72
2022/12/30 13:16:23;;;;;;;3.67;1.00;;;8.70;99.90;;;;;;5022480;28;20079;-71
2022/12/30 13:18:52;;;;;;;5.60;1.30;;;8.70;99.90;;;;;;5030200;28;20057;-72
2022/12/30 13:21:24;;;;;;;1.55;1.20;;;8.70;99.90;;;;;;5027169;28;20538;-72
2022/12/30 13:23:59;;;;;;;4.18;1.05;;;8.70;99.90;;;;;;5026227;28;20121;-72
2022/12/30 13:26:27;;;;;;;4.75;1.10;;;8.70;99.90;;;;;;5019998;28;20112;-72
2022/12/30 13:28:56;;;;;;;4.05;1.25;;;8.70;99.90;;;;;;5014607;28;20410;-72
2022/12/30 13:31:32;;;;;;;2.92;0.90;;;8.70;99.90;;;;;;5002184;28;20038;-72
2022/12/30 13:34:15;;;;;;;3.60;1.30;;;8.70;99.90;;;;;;5024970;28;20103;-72
2022/12/30 13:37:06;;;;;;;5.60;1.00;;;8.80;99.90;;;;;;5018842;28;20049;-72
2022/12/30 13:39:41;;;;;;;4.13;0.98;;;8.90;99.90;;;;;;5016043;28;20064;-73
2022/12/30 13:42:34;;;;;;;8.43;1.40;;;8.80;99.90;;;;;;5009558;28;20140;-73
2022/12/30 13:45:01;;;;;;;5.85;1.20;;;8.80;99.90;;;;;;5018634;28;20054;-73
2022/12/30 13:47:38;;;;;;;3.35;0.90;;;8.80;99.90;;;;;;5020755;28;20057;-73
2022/12/30 13:50:12;;;;;;;;;;;8.80;99.90;;;;;;5022812;28;20038;-73
2022/12/30 13:52:51;;;;;;;3.45;1.00;;;8.70;99.90;;;;;;4994858;28;20621;-73
2022/12/30 13:55:27;;;;;;;1.45;0.88;;;8.70;99.90;;;;;;5016684;28;20116;-73
2022/12/30 13:58:01;;;;;;;5.28;1.42;;;8.80;99.90;;;;;;5025972;28;20414;-73
2022/12/30 14:00:33;;;;;;;2.88;1.17;;;8.80;99.90;;;;;;5023207;28;20045;-73
2022/12/30 14:03:17;;;;;;;3.78;1.10;;;8.90;99.90;;;;;;5033113;28;20359;-74
2022/12/30 14:05:43;;;;;;;5.10;1.52;;;9.00;99.90;;;;;;5026320;28;20052;-74
2022/12/30 14:08:27;;;;;;;5.88;1.42;;;9.00;99.90;;;;;;5012094;28;20046;-74
2022/12/30 14:11:02;;;;;;;7.03;1.60;;;9.00;99.90;;;;;;5023920;28;20041;-73
2022/12/30 14:13:31;;;;;;;3.45;1.05;;;9.00;99.90;;;;;;5025393;28;20068;-74
2022/12/30 14:16:05;;;;;;;4.43;1.20;;;9.00;99.90;;;;;;5022928;28;20043;-73